sensor_id;sensor_type;location;lat;lon;timestamp;P1;durP1;ratioP1;P2;durP2;ratioP2
54307;SDS011;40208;39.778;2.710;2023-03-14T00:01:14;18.30;;;3.22;;
54307;SDS011;40208;39.778;2.710;2023-03-14T00:04:00;14.20;;;3.30;;
54307;SDS011;40208;39.778;2.710;2023-03-14T00:06:48;12.30;;;3.30;;
54307;SDS011;40208;39.778;2.710;2023-03-14T00:09:33;26.55;;;3.90;;
54307;SDS011;40208;39.778;2.710;2023-03-14T00:12:18;11.80;;;3.08;;
54307;SDS011;40208;39.778;2.710;2023-03-14T00:15:03;11.98;;;2.70;;
54307;SDS011;40208;39.778;2.710;2023-03-14T00:17:51;11.27;;;3.30;;
54307;SDS011;40208;39.778;2.710;2023-03-14T00:20:36;10.98;;;2.95;;
54307;SDS011;40208;39.778;2.710;2023-03-14T00:23:21;16.85;;;3.40;;
54307;SDS011;40208;39.778;2.710;2023-03-14T00:26:07;14.50;;;3.28;;
54307;SDS011;40208;39.778;2.710;2023-03-14T00:28:54;10.77;;;3.17;;
54307;SDS011;40208;39.778;2.710;2023-03-14T00:31:39;16.77;;;3.63;;
54307;SDS011;40208;39.778;2.710;2023-03-14T00:34:27;14.55;;;3.17;;
54307;SDS011;40208;39.778;2.710;2023-03-14T00:37:13;18.00;;;4.00;;
54307;SDS011;40208;39.778;2.710;2023-03-14T00:39:58;22.42;;;3.83;;
54307;SDS011;40208;39.778;2.710;2023-03-14T00:42:43;11.05;;;3.00;;
54307;SDS011;40208;39.778;2.710;2023-03-14T00:45:28;14.55;;;3.22;;
54307;SDS011;40208;39.778;2.710;2023-03-14T00:48:13;10.10;;;3.30;;
54307;SDS011;40208;39.778;2.710;2023-03-14T00:50:58;16.10;;;3.65;;
54307;SDS011;40208;39.778;2.710;2023-03-14T00:53:43;10.85;;;2.75;;
54307;SDS011;40208;39.778;2.710;2023-03-14T00:56:30;12.18;;;3.72;;
54307;SDS011;40208;39.778;2.710;2023-03-14T00:59:15;13.60;;;3.63;;
54307;SDS011;40208;39.778;2.710;2023-03-14T01:02:01;9.35;;;3.15;;
54307;SDS011;40208;39.778;2.710;2023-03-14T01:04:47;19.00;;;3.55;;
54307;SDS011;40208;39.778;2.710;2023-03-14T01:07:33;13.15;;;3.20;;
54307;SDS011;40208;39.778;2.710;2023-03-14T01:10:18;10.10;;;3.13;;
54307;SDS011;40208;39.778;2.710;2023-03-14T01:13:03;25.20;;;3.95;;
54307;SDS011;40208;39.778;2.710;2023-03-14T01:15:48;14.75;;;4.20;;
54307;SDS011;40208;39.778;2.710;2023-03-14T01:18:33;13.63;;;3.42;;
54307;SDS011;40208;39.778;2.710;2023-03-14T01:21:22;15.23;;;3.75;;
54307;SDS011;40208;39.778;2.710;2023-03-14T01:24:12;18.27;;;3.35;;
54307;SDS011;40208;39.778;2.710;2023-03-14T01:26:57;16.77;;;3.90;;
54307;SDS011;40208;39.778;2.710;2023-03-14T01:29:42;17.48;;;4.15;;
54307;SDS011;40208;39.778;2.710;2023-03-14T01:32:27;15.48;;;4.03;;
54307;SDS011;40208;39.778;2.710;2023-03-14T01:35:12;14.80;;;3.15;;
54307;SDS011;40208;39.778;2.710;2023-03-14T01:37:56;16.75;;;3.90;;
54307;SDS011;40208;39.778;2.710;2023-03-14T01:40:42;18.27;;;3.78;;
54307;SDS011;40208;39.778;2.710;2023-03-14T01:43:28;17.13;;;4.38;;
54307;SDS011;40208;39.778;2.710;2023-03-14T01:46:17;16.50;;;4.22;;
54307;SDS011;40208;39.778;2.710;2023-03-14T01:52:10;21.15;;;4.40;;
54307;SDS011;40208;39.778;2.710;2023-03-14T01:54:59;14.02;;;2.83;;
54307;SDS011;40208;39.778;2.710;2023-03-14T01:57:50;32.92;;;2.95;;
54307;SDS011;40208;39.778;2.710;2023-03-14T02:00:43;9.73;;;2.10;;
54307;SDS011;40208;39.778;2.710;2023-03-14T02:03:28;16.52;;;2.67;;
54307;SDS011;40208;39.778;2.710;2023-03-14T02:06:19;14.50;;;2.70;;
54307;SDS011;40208;39.778;2.710;2023-03-14T02:09:08;17.80;;;2.22;;
54307;SDS011;40208;39.778;2.710;2023-03-14T02:11:54;16.05;;;2.28;;
54307;SDS011;40208;39.778;2.710;2023-03-14T02:14:39;9.60;;;2.45;;
54307;SDS011;40208;39.778;2.710;2023-03-14T02:17:26;7.57;;;2.00;;
54307;SDS011;40208;39.778;2.710;2023-03-14T02:20:19;14.15;;;2.40;;
54307;SDS011;40208;39.778;2.710;2023-03-14T02:23:16;10.45;;;2.20;;
54307;SDS011;40208;39.778;2.710;2023-03-14T02:26:15;9.68;;;1.80;;
54307;SDS011;40208;39.778;2.710;2023-03-14T02:29:07;7.22;;;1.73;;
54307;SDS011;40208;39.778;2.710;2023-03-14T02:31:52;6.28;;;1.52;;
54307;SDS011;40208;39.778;2.710;2023-03-14T02:34:38;8.07;;;1.83;;
54307;SDS011;40208;39.778;2.710;2023-03-14T02:37:25;10.73;;;1.83;;
54307;SDS011;40208;39.778;2.710;2023-03-14T02:40:20;10.15;;;1.75;;
54307;SDS011;40208;39.778;2.710;2023-03-14T02:43:04;18.10;;;2.97;;
54307;SDS011;40208;39.778;2.710;2023-03-14T02:45:49;23.30;;;2.17;;
54307;SDS011;40208;39.778;2.710;2023-03-14T02:48:43;12.45;;;2.50;;
54307;SDS011;40208;39.778;2.710;2023-03-14T02:51:35;13.95;;;2.35;;
54307;SDS011;40208;39.778;2.710;2023-03-14T02:54:22;9.32;;;2.00;;
54307;SDS011;40208;39.778;2.710;2023-03-14T02:57:07;14.20;;;2.97;;
54307;SDS011;40208;39.778;2.710;2023-03-14T02:59:51;12.77;;;2.45;;
54307;SDS011;40208;39.778;2.710;2023-03-14T03:02:36;18.52;;;2.60;;
54307;SDS011;40208;39.778;2.710;2023-03-14T03:05:21;15.70;;;3.22;;
54307;SDS011;40208;39.778;2.710;2023-03-14T03:08:06;14.75;;;2.65;;
54307;SDS011;40208;39.778;2.710;2023-03-14T03:10:50;12.95;;;2.30;;
54307;SDS011;40208;39.778;2.710;2023-03-14T03:13:35;10.10;;;1.77;;
54307;SDS011;40208;39.778;2.710;2023-03-14T03:16:20;15.45;;;2.70;;
54307;SDS011;40208;39.778;2.710;2023-03-14T03:19:06;13.52;;;3.00;;
54307;SDS011;40208;39.778;2.710;2023-03-14T03:21:51;17.85;;;2.70;;
54307;SDS011;40208;39.778;2.710;2023-03-14T03:24:36;20.65;;;3.33;;
54307;SDS011;40208;39.778;2.710;2023-03-14T03:27:21;17.52;;;2.78;;
54307;SDS011;40208;39.778;2.710;2023-03-14T03:30:06;16.13;;;3.28;;
54307;SDS011;40208;39.778;2.710;2023-03-14T03:32:51;18.50;;;2.70;;
54307;SDS011;40208;39.778;2.710;2023-03-14T03:35:47;21.25;;;2.67;;
54307;SDS011;40208;39.778;2.710;2023-03-14T03:38:33;18.23;;;2.63;;
54307;SDS011;40208;39.778;2.710;2023-03-14T03:41:18;15.20;;;3.10;;
54307;SDS011;40208;39.778;2.710;2023-03-14T03:44:04;14.27;;;3.05;;
54307;SDS011;40208;39.778;2.710;2023-03-14T03:46:50;18.50;;;2.75;;
54307;SDS011;40208;39.778;2.710;2023-03-14T03:49:34;16.52;;;2.50;;
54307;SDS011;40208;39.778;2.710;2023-03-14T03:52:19;21.50;;;2.83;;
54307;SDS011;40208;39.778;2.710;2023-03-14T03:55:04;20.05;;;3.38;;
54307;SDS011;40208;39.778;2.710;2023-03-14T03:57:49;14.95;;;3.05;;
54307;SDS011;40208;39.778;2.710;2023-03-14T04:00:34;25.48;;;3.20;;
54307;SDS011;40208;39.778;2.710;2023-03-14T04:03:19;19.80;;;2.78;;
54307;SDS011;40208;39.778;2.710;2023-03-14T04:06:08;15.55;;;3.20;;
54307;SDS011;40208;39.778;2.710;2023-03-14T04:08:54;15.65;;;2.60;;
54307;SDS011;40208;39.778;2.710;2023-03-14T04:11:39;15.57;;;3.28;;
54307;SDS011;40208;39.778;2.710;2023-03-14T04:14:24;12.90;;;2.90;;
54307;SDS011;40208;39.778;2.710;2023-03-14T04:17:09;12.52;;;2.42;;
54307;SDS011;40208;39.778;2.710;2023-03-14T04:19:54;14.00;;;2.95;;
54307;SDS011;40208;39.778;2.710;2023-03-14T04:22:38;20.02;;;3.83;;
54307;SDS011;40208;39.778;2.710;2023-03-14T04:25:23;20.35;;;2.78;;
54307;SDS011;40208;39.778;2.710;2023-03-14T04:28:09;22.83;;;2.83;;
54307;SDS011;40208;39.778;2.710;2023-03-14T04:30:54;14.93;;;2.38;;
54307;SDS011;40208;39.778;2.710;2023-03-14T04:33:39;18.23;;;3.05;;
54307;SDS011;40208;39.778;2.710;2023-03-14T04:36:23;14.55;;;2.53;;
54307;SDS011;40208;39.778;2.710;2023-03-14T04:39:08;17.13;;;2.50;;
54307;SDS011;40208;39.778;2.710;2023-03-14T04:41:53;7.70;;;1.67;;
54307;SDS011;40208;39.778;2.710;2023-03-14T04:44:39;11.02;;;1.95;;
54307;SDS011;40208;39.778;2.710;2023-03-14T04:47:24;8.40;;;1.40;;
54307;SDS011;40208;39.778;2.710;2023-03-14T04:50:09;10.05;;;1.73;;
54307;SDS011;40208;39.778;2.710;2023-03-14T04:52:55;15.63;;;2.05;;
54307;SDS011;40208;39.778;2.710;2023-03-14T04:55:40;11.95;;;1.90;;
54307;SDS011;40208;39.778;2.710;2023-03-14T04:58:24;10.27;;;1.85;;
54307;SDS011;40208;39.778;2.710;2023-03-14T05:01:09;12.27;;;1.75;;
54307;SDS011;40208;39.778;2.710;2023-03-14T05:03:55;9.82;;;2.05;;
54307;SDS011;40208;39.778;2.710;2023-03-14T05:06:40;13.20;;;2.05;;
54307;SDS011;40208;39.778;2.710;2023-03-14T05:09:26;10.73;;;2.33;;
54307;SDS011;40208;39.778;2.710;2023-03-14T05:12:12;11.38;;;1.48;;
54307;SDS011;40208;39.778;2.710;2023-03-14T05:14:56;12.60;;;1.80;;
54307;SDS011;40208;39.778;2.710;2023-03-14T05:17:41;11.93;;;1.75;;
54307;SDS011;40208;39.778;2.710;2023-03-14T05:20:26;10.85;;;2.00;;
54307;SDS011;40208;39.778;2.710;2023-03-14T05:23:11;12.20;;;1.65;;
54307;SDS011;40208;39.778;2.710;2023-03-14T05:25:56;8.80;;;2.00;;
54307;SDS011;40208;39.778;2.710;2023-03-14T05:28:41;10.05;;;1.33;;
54307;SDS011;40208;39.778;2.710;2023-03-14T05:31:26;8.02;;;1.70;;
54307;SDS011;40208;39.778;2.710;2023-03-14T05:34:11;10.50;;;1.83;;
54307;SDS011;40208;39.778;2.710;2023-03-14T05:36:56;11.90;;;2.00;;
54307;SDS011;40208;39.778;2.710;2023-03-14T05:39:41;13.82;;;2.10;;
54307;SDS011;40208;39.778;2.710;2023-03-14T05:42:26;13.20;;;1.88;;
54307;SDS011;40208;39.778;2.710;2023-03-14T05:45:11;10.45;;;1.40;;
54307;SDS011;40208;39.778;2.710;2023-03-14T05:47:56;11.85;;;1.77;;
54307;SDS011;40208;39.778;2.710;2023-03-14T05:50:41;13.82;;;1.70;;
54307;SDS011;40208;39.778;2.710;2023-03-14T05:53:26;8.93;;;1.67;;
54307;SDS011;40208;39.778;2.710;2023-03-14T05:56:11;11.52;;;2.28;;
54307;SDS011;40208;39.778;2.710;2023-03-14T05:58:56;16.17;;;2.03;;
54307;SDS011;40208;39.778;2.710;2023-03-14T06:01:40;10.27;;;2.10;;
54307;SDS011;40208;39.778;2.710;2023-03-14T06:04:25;7.35;;;1.75;;
54307;SDS011;40208;39.778;2.710;2023-03-14T06:07:10;10.88;;;2.38;;
54307;SDS011;40208;39.778;2.710;2023-03-14T06:09:55;13.35;;;2.15;;
54307;SDS011;40208;39.778;2.710;2023-03-14T06:12:41;15.20;;;2.03;;
54307;SDS011;40208;39.778;2.710;2023-03-14T06:15:26;10.55;;;1.98;;
54307;SDS011;40208;39.778;2.710;2023-03-14T06:18:11;10.77;;;2.03;;
54307;SDS011;40208;39.778;2.710;2023-03-14T06:20:56;11.35;;;2.28;;
54307;SDS011;40208;39.778;2.710;2023-03-14T06:23:41;14.07;;;2.70;;
54307;SDS011;40208;39.778;2.710;2023-03-14T06:26:26;12.90;;;2.17;;
54307;SDS011;40208;39.778;2.710;2023-03-14T06:29:11;15.00;;;2.85;;
54307;SDS011;40208;39.778;2.710;2023-03-14T06:31:57;11.50;;;2.58;;
54307;SDS011;40208;39.778;2.710;2023-03-14T06:34:42;12.45;;;2.75;;
54307;SDS011;40208;39.778;2.710;2023-03-14T06:37:28;15.25;;;1.92;;
54307;SDS011;40208;39.778;2.710;2023-03-14T06:40:13;15.00;;;2.65;;
54307;SDS011;40208;39.778;2.710;2023-03-14T06:43:02;12.27;;;2.33;;
54307;SDS011;40208;39.778;2.710;2023-03-14T06:45:47;12.27;;;2.00;;
54307;SDS011;40208;39.778;2.710;2023-03-14T06:48:32;16.40;;;2.83;;
54307;SDS011;40208;39.778;2.710;2023-03-14T06:51:17;13.65;;;3.15;;
54307;SDS011;40208;39.778;2.710;2023-03-14T06:54:02;16.02;;;2.92;;
54307;SDS011;40208;39.778;2.710;2023-03-14T06:56:47;15.70;;;3.03;;
54307;SDS011;40208;39.778;2.710;2023-03-14T06:59:32;17.80;;;2.30;;
54307;SDS011;40208;39.778;2.710;2023-03-14T07:02:17;15.60;;;2.70;;
54307;SDS011;40208;39.778;2.710;2023-03-14T07:05:02;24.08;;;2.55;;
54307;SDS011;40208;39.778;2.710;2023-03-14T07:07:48;22.15;;;2.78;;
54307;SDS011;40208;39.778;2.710;2023-03-14T07:10:33;16.60;;;2.38;;
54307;SDS011;40208;39.778;2.710;2023-03-14T07:13:19;10.73;;;2.72;;
54307;SDS011;40208;39.778;2.710;2023-03-14T07:16:04;11.98;;;1.73;;
54307;SDS011;40208;39.778;2.710;2023-03-14T07:18:50;16.50;;;2.63;;
54307;SDS011;40208;39.778;2.710;2023-03-14T07:21:36;14.50;;;2.95;;
54307;SDS011;40208;39.778;2.710;2023-03-14T07:24:21;17.92;;;2.95;;
54307;SDS011;40208;39.778;2.710;2023-03-14T07:27:06;15.43;;;2.75;;
54307;SDS011;40208;39.778;2.710;2023-03-14T07:29:51;20.40;;;2.80;;
54307;SDS011;40208;39.778;2.710;2023-03-14T07:32:36;17.27;;;2.55;;
54307;SDS011;40208;39.778;2.710;2023-03-14T07:35:20;22.40;;;3.80;;
54307;SDS011;40208;39.778;2.710;2023-03-14T07:38:05;10.30;;;2.90;;
54307;SDS011;40208;39.778;2.710;2023-03-14T07:40:52;10.27;;;2.20;;
54307;SDS011;40208;39.778;2.710;2023-03-14T07:43:45;17.65;;;3.00;;
54307;SDS011;40208;39.778;2.710;2023-03-14T07:46:31;19.58;;;2.33;;
54307;SDS011;40208;39.778;2.710;2023-03-14T07:49:16;19.48;;;2.92;;
54307;SDS011;40208;39.778;2.710;2023-03-14T07:52:01;16.33;;;3.63;;
54307;SDS011;40208;39.778;2.710;2023-03-14T07:54:45;15.02;;;4.05;;
54307;SDS011;40208;39.778;2.710;2023-03-14T07:57:31;19.20;;;5.50;;
54307;SDS011;40208;39.778;2.710;2023-03-14T08:00:15;14.02;;;4.20;;
54307;SDS011;40208;39.778;2.710;2023-03-14T08:03:01;16.92;;;3.90;;
54307;SDS011;40208;39.778;2.710;2023-03-14T08:05:49;21.63;;;4.28;;
54307;SDS011;40208;39.778;2.710;2023-03-14T08:08:35;20.45;;;3.58;;
54307;SDS011;40208;39.778;2.710;2023-03-14T08:11:20;16.58;;;3.33;;
54307;SDS011;40208;39.778;2.710;2023-03-14T08:14:05;16.08;;;3.90;;
54307;SDS011;40208;39.778;2.710;2023-03-14T08:16:50;14.90;;;3.38;;
54307;SDS011;40208;39.778;2.710;2023-03-14T08:19:35;14.07;;;3.47;;
54307;SDS011;40208;39.778;2.710;2023-03-14T08:22:20;14.55;;;3.28;;
54307;SDS011;40208;39.778;2.710;2023-03-14T08:25:06;12.13;;;3.10;;
54307;SDS011;40208;39.778;2.710;2023-03-14T08:27:51;19.15;;;3.80;;
54307;SDS011;40208;39.778;2.710;2023-03-14T08:30:36;16.42;;;4.35;;
54307;SDS011;40208;39.778;2.710;2023-03-14T08:33:22;15.88;;;3.63;;
54307;SDS011;40208;39.778;2.710;2023-03-14T08:36:06;16.92;;;4.65;;
54307;SDS011;40208;39.778;2.710;2023-03-14T08:38:52;18.95;;;4.82;;
54307;SDS011;40208;39.778;2.710;2023-03-14T08:41:37;18.45;;;4.82;;
54307;SDS011;40208;39.778;2.710;2023-03-14T08:44:24;15.30;;;3.00;;
54307;SDS011;40208;39.778;2.710;2023-03-14T08:47:09;19.23;;;4.22;;
54307;SDS011;40208;39.778;2.710;2023-03-14T08:49:54;16.92;;;4.57;;
54307;SDS011;40208;39.778;2.710;2023-03-14T08:52:39;15.02;;;4.90;;
54307;SDS011;40208;39.778;2.710;2023-03-14T08:55:25;20.10;;;4.75;;
54307;SDS011;40208;39.778;2.710;2023-03-14T08:58:11;27.00;;;6.57;;
54307;SDS011;40208;39.778;2.710;2023-03-14T09:00:57;18.15;;;3.85;;
54307;SDS011;40208;39.778;2.710;2023-03-14T09:03:42;28.35;;;6.47;;
54307;SDS011;40208;39.778;2.710;2023-03-14T09:06:27;21.83;;;5.80;;
54307;SDS011;40208;39.778;2.710;2023-03-14T09:09:12;26.55;;;6.90;;
54307;SDS011;40208;39.778;2.710;2023-03-14T09:11:57;17.90;;;5.40;;
54307;SDS011;40208;39.778;2.710;2023-03-14T09:14:42;28.45;;;6.82;;
54307;SDS011;40208;39.778;2.710;2023-03-14T09:17:27;19.92;;;6.53;;
54307;SDS011;40208;39.778;2.710;2023-03-14T09:20:12;16.13;;;5.47;;
54307;SDS011;40208;39.778;2.710;2023-03-14T09:22:58;29.73;;;8.02;;
54307;SDS011;40208;39.778;2.710;2023-03-14T09:25:43;36.28;;;10.30;;
54307;SDS011;40208;39.778;2.710;2023-03-14T09:28:28;33.53;;;8.80;;
54307;SDS011;40208;39.778;2.710;2023-03-14T09:31:13;31.55;;;10.30;;
54307;SDS011;40208;39.778;2.710;2023-03-14T09:33:58;30.55;;;10.10;;
54307;SDS011;40208;39.778;2.710;2023-03-14T09:36:43;22.98;;;6.03;;
54307;SDS011;40208;39.778;2.710;2023-03-14T09:39:29;33.97;;;10.60;;
54307;SDS011;40208;39.778;2.710;2023-03-14T09:42:14;31.25;;;8.45;;
54307;SDS011;40208;39.778;2.710;2023-03-14T09:45:05;25.58;;;7.28;;
54307;SDS011;40208;39.778;2.710;2023-03-14T09:47:55;30.02;;;8.60;;
54307;SDS011;40208;39.778;2.710;2023-03-14T09:50:42;28.67;;;9.88;;
54307;SDS011;40208;39.778;2.710;2023-03-14T09:56:45;10.73;;;2.70;;
54307;SDS011;40208;39.778;2.710;2023-03-14T09:59:30;15.90;;;3.58;;
54307;SDS011;40208;39.778;2.710;2023-03-14T10:05:22;25.15;;;6.85;;
54307;SDS011;40208;39.778;2.710;2023-03-14T10:08:12;24.48;;;5.65;;
54307;SDS011;40208;39.778;2.710;2023-03-14T10:10:58;26.75;;;8.48;;
54307;SDS011;40208;39.778;2.710;2023-03-14T10:13:48;26.08;;;8.57;;
54307;SDS011;40208;39.778;2.710;2023-03-14T10:16:43;28.55;;;6.53;;
54307;SDS011;40208;39.778;2.710;2023-03-14T10:19:29;25.35;;;8.02;;
54307;SDS011;40208;39.778;2.710;2023-03-14T10:22:15;26.88;;;6.90;;
54307;SDS011;40208;39.778;2.710;2023-03-14T10:25:02;23.30;;;6.57;;
54307;SDS011;40208;39.778;2.710;2023-03-14T10:27:49;26.95;;;7.97;;
54307;SDS011;40208;39.778;2.710;2023-03-14T10:30:44;19.05;;;5.03;;
54307;SDS011;40208;39.778;2.710;2023-03-14T10:33:34;19.40;;;6.50;;
54307;SDS011;40208;39.778;2.710;2023-03-14T10:36:23;20.35;;;6.57;;
54307;SDS011;40208;39.778;2.710;2023-03-14T10:42:15;27.58;;;8.65;;
54307;SDS011;40208;39.778;2.710;2023-03-14T10:45:34;27.77;;;7.15;;
54307;SDS011;40208;39.778;2.710;2023-03-14T10:48:24;24.80;;;7.82;;
54307;SDS011;40208;39.778;2.710;2023-03-14T10:54:02;25.83;;;6.18;;
54307;SDS011;40208;39.778;2.710;2023-03-14T10:56:57;17.55;;;5.70;;
54307;SDS011;40208;39.778;2.710;2023-03-14T10:59:44;20.15;;;5.07;;
54307;SDS011;40208;39.778;2.710;2023-03-14T11:08:32;29.00;;;8.18;;
54307;SDS011;40208;39.778;2.710;2023-03-14T11:11:49;19.85;;;5.43;;
54307;SDS011;40208;39.778;2.710;2023-03-14T11:14:38;20.20;;;5.35;;
54307;SDS011;40208;39.778;2.710;2023-03-14T11:17:30;22.05;;;7.97;;
54307;SDS011;40208;39.778;2.710;2023-03-14T11:30:05;17.55;;;4.32;;
54307;SDS011;40208;39.778;2.710;2023-03-14T11:33:35;9.80;;;2.85;;
54307;SDS011;40208;39.778;2.710;2023-03-14T11:36:30;23.92;;;6.93;;
54307;SDS011;40208;39.778;2.710;2023-03-14T11:39:22;17.38;;;5.05;;
54307;SDS011;40208;39.778;2.710;2023-03-14T11:42:14;22.60;;;7.13;;
54307;SDS011;40208;39.778;2.710;2023-03-14T11:45:01;18.52;;;5.68;;
54307;SDS011;40208;39.778;2.710;2023-03-14T11:48:01;19.05;;;6.20;;
54307;SDS011;40208;39.778;2.710;2023-03-14T11:50:54;29.70;;;6.65;;
54307;SDS011;40208;39.778;2.710;2023-03-14T11:56:50;22.15;;;7.15;;
54307;SDS011;40208;39.778;2.710;2023-03-14T12:11:40;13.55;;;3.80;;
54307;SDS011;40208;39.778;2.710;2023-03-14T12:14:32;12.52;;;2.92;;
54307;SDS011;40208;39.778;2.710;2023-03-14T12:17:20;10.77;;;2.67;;
54307;SDS011;40208;39.778;2.710;2023-03-14T12:20:17;14.88;;;3.20;;
54307;SDS011;40208;39.778;2.710;2023-03-14T12:23:05;11.20;;;2.88;;
54307;SDS011;40208;39.778;2.710;2023-03-14T12:26:13;13.75;;;3.13;;
54307;SDS011;40208;39.778;2.710;2023-03-14T12:34:54;25.55;;;6.93;;
54307;SDS011;40208;39.778;2.710;2023-03-14T12:37:41;25.45;;;8.25;;
54307;SDS011;40208;39.778;2.710;2023-03-14T12:40:33;19.80;;;5.82;;
54307;SDS011;40208;39.778;2.710;2023-03-14T12:43:28;20.67;;;6.30;;
54307;SDS011;40208;39.778;2.710;2023-03-14T12:51:53;22.52;;;6.35;;
54307;SDS011;40208;39.778;2.710;2023-03-14T12:58:03;22.05;;;6.60;;
54307;SDS011;40208;39.778;2.710;2023-03-14T13:01:14;17.80;;;6.35;;
54307;SDS011;40208;39.778;2.710;2023-03-14T13:04:10;14.13;;;4.95;;
54307;SDS011;40208;39.778;2.710;2023-03-14T13:06:57;17.38;;;3.92;;
54307;SDS011;40208;39.778;2.710;2023-03-14T13:09:50;17.35;;;4.90;;
54307;SDS011;40208;39.778;2.710;2023-03-14T13:15:34;9.43;;;2.35;;
54307;SDS011;40208;39.778;2.710;2023-03-14T13:18:26;17.20;;;4.90;;
54307;SDS011;40208;39.778;2.710;2023-03-14T13:21:17;11.80;;;3.78;;
54307;SDS011;40208;39.778;2.710;2023-03-14T13:24:05;13.70;;;4.13;;
54307;SDS011;40208;39.778;2.710;2023-03-14T13:26:53;19.50;;;5.70;;
54307;SDS011;40208;39.778;2.710;2023-03-14T13:29:39;17.58;;;6.30;;
54307;SDS011;40208;39.778;2.710;2023-03-14T13:32:26;9.88;;;3.35;;
54307;SDS011;40208;39.778;2.710;2023-03-14T13:35:24;11.73;;;3.83;;
54307;SDS011;40208;39.778;2.710;2023-03-14T13:41:00;17.25;;;4.38;;
54307;SDS011;40208;39.778;2.710;2023-03-14T13:43:49;16.20;;;4.38;;
54307;SDS011;40208;39.778;2.710;2023-03-14T13:46:35;14.82;;;3.80;;
54307;SDS011;40208;39.778;2.710;2023-03-14T13:49:21;11.20;;;3.33;;
54307;SDS011;40208;39.778;2.710;2023-03-14T13:55:14;11.60;;;4.18;;
54307;SDS011;40208;39.778;2.710;2023-03-14T13:58:02;10.55;;;3.17;;
54307;SDS011;40208;39.778;2.710;2023-03-14T14:04:07;11.27;;;3.35;;
54307;SDS011;40208;39.778;2.710;2023-03-14T14:06:59;10.85;;;2.83;;
54307;SDS011;40208;39.778;2.710;2023-03-14T14:09:51;8.45;;;2.25;;
54307;SDS011;40208;39.778;2.710;2023-03-14T14:12:59;11.55;;;3.05;;
54307;SDS011;40208;39.778;2.710;2023-03-14T14:15:48;9.13;;;2.47;;
54307;SDS011;40208;39.778;2.710;2023-03-14T14:18:35;10.13;;;3.90;;
54307;SDS011;40208;39.778;2.710;2023-03-14T14:21:21;11.82;;;3.92;;
54307;SDS011;40208;39.778;2.710;2023-03-14T14:24:07;11.73;;;4.05;;
54307;SDS011;40208;39.778;2.710;2023-03-14T14:27:13;7.10;;;2.50;;
54307;SDS011;40208;39.778;2.710;2023-03-14T14:30:00;9.75;;;3.45;;
54307;SDS011;40208;39.778;2.710;2023-03-14T14:32:51;8.23;;;2.75;;
54307;SDS011;40208;39.778;2.710;2023-03-14T14:35:36;10.45;;;2.92;;
54307;SDS011;40208;39.778;2.710;2023-03-14T14:38:20;5.07;;;1.85;;
54307;SDS011;40208;39.778;2.710;2023-03-14T14:41:10;9.52;;;2.70;;
54307;SDS011;40208;39.778;2.710;2023-03-14T14:43:56;11.30;;;2.33;;
54307;SDS011;40208;39.778;2.710;2023-03-14T14:46:42;6.10;;;2.55;;
54307;SDS011;40208;39.778;2.710;2023-03-14T14:49:28;7.38;;;2.10;;
54307;SDS011;40208;39.778;2.710;2023-03-14T14:52:16;9.25;;;1.83;;
54307;SDS011;40208;39.778;2.710;2023-03-14T14:57:57;10.77;;;2.10;;
54307;SDS011;40208;39.778;2.710;2023-03-14T15:00:49;6.43;;;1.80;;
54307;SDS011;40208;39.778;2.710;2023-03-14T15:03:41;8.05;;;2.25;;
54307;SDS011;40208;39.778;2.710;2023-03-14T15:06:28;7.47;;;2.20;;
54307;SDS011;40208;39.778;2.710;2023-03-14T15:09:15;6.85;;;1.80;;
54307;SDS011;40208;39.778;2.710;2023-03-14T15:12:01;5.25;;;1.77;;
54307;SDS011;40208;39.778;2.710;2023-03-14T15:14:47;10.15;;;2.45;;
54307;SDS011;40208;39.778;2.710;2023-03-14T15:17:33;6.85;;;2.53;;
54307;SDS011;40208;39.778;2.710;2023-03-14T15:20:18;6.32;;;2.10;;
54307;SDS011;40208;39.778;2.710;2023-03-14T15:23:07;8.10;;;2.33;;
54307;SDS011;40208;39.778;2.710;2023-03-14T15:25:56;6.00;;;2.15;;
54307;SDS011;40208;39.778;2.710;2023-03-14T15:28:41;8.27;;;2.63;;
54307;SDS011;40208;39.778;2.710;2023-03-14T15:31:26;7.82;;;2.45;;
54307;SDS011;40208;39.778;2.710;2023-03-14T15:34:11;8.38;;;2.47;;
54307;SDS011;40208;39.778;2.710;2023-03-14T15:36:56;7.82;;;1.92;;
54307;SDS011;40208;39.778;2.710;2023-03-14T15:39:42;13.05;;;2.50;;
54307;SDS011;40208;39.778;2.710;2023-03-14T15:42:27;5.90;;;2.03;;
54307;SDS011;40208;39.778;2.710;2023-03-14T15:45:12;5.05;;;1.70;;
54307;SDS011;40208;39.778;2.710;2023-03-14T15:47:57;11.55;;;1.80;;
54307;SDS011;40208;39.778;2.710;2023-03-14T15:50:43;6.97;;;2.20;;
54307;SDS011;40208;39.778;2.710;2023-03-14T15:53:28;7.60;;;1.75;;
54307;SDS011;40208;39.778;2.710;2023-03-14T15:56:14;5.63;;;1.50;;
54307;SDS011;40208;39.778;2.710;2023-03-14T15:59:00;3.58;;;1.20;;
54307;SDS011;40208;39.778;2.710;2023-03-14T16:01:45;7.00;;;1.92;;
54307;SDS011;40208;39.778;2.710;2023-03-14T16:04:33;4.78;;;1.40;;
54307;SDS011;40208;39.778;2.710;2023-03-14T16:07:18;4.78;;;1.30;;
54307;SDS011;40208;39.778;2.710;2023-03-14T16:10:03;10.55;;;1.55;;
54307;SDS011;40208;39.778;2.710;2023-03-14T16:12:49;5.72;;;1.73;;
54307;SDS011;40208;39.778;2.710;2023-03-14T16:15:34;4.70;;;1.40;;
54307;SDS011;40208;39.778;2.710;2023-03-14T16:18:19;9.57;;;1.90;;
54307;SDS011;40208;39.778;2.710;2023-03-14T16:21:05;6.07;;;1.33;;
54307;SDS011;40208;39.778;2.710;2023-03-14T16:23:52;8.77;;;1.63;;
54307;SDS011;40208;39.778;2.710;2023-03-14T16:26:37;6.45;;;1.88;;
54307;SDS011;40208;39.778;2.710;2023-03-14T16:29:21;4.75;;;1.20;;
54307;SDS011;40208;39.778;2.710;2023-03-14T16:32:06;7.20;;;1.92;;
54307;SDS011;40208;39.778;2.710;2023-03-14T16:34:51;8.68;;;2.70;;
54307;SDS011;40208;39.778;2.710;2023-03-14T16:37:36;4.95;;;1.70;;
54307;SDS011;40208;39.778;2.710;2023-03-14T16:40:21;8.63;;;1.67;;
54307;SDS011;40208;39.778;2.710;2023-03-14T16:43:06;9.77;;;1.88;;
54307;SDS011;40208;39.778;2.710;2023-03-14T16:45:51;7.03;;;1.55;;
54307;SDS011;40208;39.778;2.710;2023-03-14T16:48:36;8.07;;;1.80;;
54307;SDS011;40208;39.778;2.710;2023-03-14T16:51:22;8.30;;;1.90;;
54307;SDS011;40208;39.778;2.710;2023-03-14T16:54:08;34.20;;;14.68;;
54307;SDS011;40208;39.778;2.710;2023-03-14T16:56:53;15.77;;;3.38;;
54307;SDS011;40208;39.778;2.710;2023-03-14T16:59:37;7.57;;;1.52;;
54307;SDS011;40208;39.778;2.710;2023-03-14T17:02:22;14.13;;;5.60;;
54307;SDS011;40208;39.778;2.710;2023-03-14T17:05:07;13.77;;;4.30;;
54307;SDS011;40208;39.778;2.710;2023-03-14T17:07:52;9.50;;;3.47;;
54307;SDS011;40208;39.778;2.710;2023-03-14T17:10:37;6.85;;;2.22;;
54307;SDS011;40208;39.778;2.710;2023-03-14T17:13:23;10.38;;;2.20;;
54307;SDS011;40208;39.778;2.710;2023-03-14T17:16:09;8.65;;;2.00;;
54307;SDS011;40208;39.778;2.710;2023-03-14T17:18:54;8.27;;;1.50;;
54307;SDS011;40208;39.778;2.710;2023-03-14T17:21:39;7.60;;;2.38;;
54307;SDS011;40208;39.778;2.710;2023-03-14T17:24:24;5.78;;;1.80;;
54307;SDS011;40208;39.778;2.710;2023-03-14T17:27:09;5.70;;;1.48;;
54307;SDS011;40208;39.778;2.710;2023-03-14T17:29:54;10.45;;;1.30;;
54307;SDS011;40208;39.778;2.710;2023-03-14T17:32:39;7.53;;;2.95;;
54307;SDS011;40208;39.778;2.710;2023-03-14T17:35:24;10.77;;;2.10;;
54307;SDS011;40208;39.778;2.710;2023-03-14T17:38:09;12.18;;;1.73;;
54307;SDS011;40208;39.778;2.710;2023-03-14T17:40:54;8.00;;;1.80;;
54307;SDS011;40208;39.778;2.710;2023-03-14T17:43:39;7.70;;;1.73;;
54307;SDS011;40208;39.778;2.710;2023-03-14T17:46:25;7.55;;;1.77;;
54307;SDS011;40208;39.778;2.710;2023-03-14T17:49:10;7.90;;;1.45;;
54307;SDS011;40208;39.778;2.710;2023-03-14T17:51:55;5.32;;;1.65;;